David Froholt har fløyet solo

Daniel_01

Daniel_02

Daniel_03

 
METAR
2018/11/21 15:50 ENCN 211550Z 04010KT 9999 -RA FEW013 BKN028 02/01 Q1032
TAF
2018/11/21 15:36 TAF TAF ENCN 211400Z 2115/2122 05010KT 9999 -RA SCT008 BKN012 TEMPO 2115/2122 SCT012 BKN018
LN-KFK
Operativ VFR-natt
VFR dag
07:41 - 16:46
Brannvakt
Inaktiv
Banner
Banner
Banner
Banner
Banner